Time;durP1;ratioP1;P1;durP2;ratioP2;P2;SDS_P1;SDS_P2;PMS_P1;PMS_P2;Temp;Humidity;BMP_temperature;BMP_pressure;BME280_temperature;BME280_humidity;BME280_pressure;Samples;Min_cycle;Max_cycle;Signal;HPM_P1;HPM_P2
2023/03/31 00:01:29;;;;;;;6.57;1.80;;;;;;;;;;6241859;28;20352;-68
2023/03/31 00:08:00;;;;;;;3.83;1.83;;;;;;;;;;6231343;28;20267;-68
2023/03/31 00:11:03;;;;;;;9.82;1.80;;;;;;;;;;6244183;28;20116;-68
2023/03/31 00:14:06;;;;;;;7.20;2.03;;;;;;;;;;6245229;28;20252;-68
2023/03/31 00:17:11;;;;;;;15.50;4.93;;;;;;;;;;6245078;28;20041;-68
2023/03/31 00:20:14;;;;;;;8.68;3.92;;;;;;;;;;6241905;28;20193;-68
2023/03/31 00:23:16;;;;;;;7.07;2.08;;;;;;;;;;6242227;28;20045;-68
2023/03/31 00:26:18;;;;;;;4.93;2.20;;;;;;;;;;6243089;28;20049;-68
2023/03/31 00:29:20;;;;;;;9.10;2.72;;;;;;;;;;6240872;28;20068;-68
2023/03/31 00:32:22;;;;;;;6.43;2.30;;;;;;;;;;6246571;28;20071;-69
2023/03/31 00:35:44;;;;;;;8.07;2.33;;;;;;;;;;6240377;28;20104;-68
2023/03/31 00:38:47;;;;;;;8.18;2.42;;;;;;;;;;6241705;28;20284;-68
2023/03/31 00:41:48;;;;;;;5.45;2.33;;;;;;;;;;6240271;28;20053;-68
2023/03/31 00:45:22;;;;;;;6.85;1.92;;;;;;;;;;6241729;28;20050;-68
2023/03/31 00:48:26;;;;;;;11.73;2.63;;;;;;;;;;6240169;28;20061;-68
2023/03/31 00:51:30;;;;;;;;;;;;;;;;;;6245332;28;20167;-67
2023/03/31 00:54:36;;;;;;;4.15;1.92;;;;;;;;;;6240732;28;19987;-68
2023/03/31 00:57:39;;;;;;;4.40;1.67;;;;;;;;;;6243415;28;20338;-67
2023/03/31 01:00:41;;;;;;;8.10;1.60;;;;;;;;;;6242572;28;20262;-67
2023/03/31 01:07:12;;;;;;;9.05;2.42;;;;;;;;;;6237405;28;20061;-71
2023/03/31 01:10:37;;;;;;;7.22;2.10;;;;;;;;;;6243466;28;20325;-68
2023/03/31 01:13:56;;;;;;;8.20;1.80;;;;;;;;;;6242516;28;20046;-68
2023/03/31 01:17:01;;;;;;;7.30;1.92;;;;;;;;;;6239914;28;20329;-68
2023/03/31 01:20:13;;;;;;;6.63;1.73;;;;;;;;;;6240476;28;20053;-68
2023/03/31 01:23:52;;;;;;;6.60;1.88;;;;;;;;;;6242286;28;20061;-68
2023/03/31 01:27:03;;;;;;;8.27;1.75;;;;;;;;;;6239640;28;20057;-68
2023/03/31 01:30:37;;;;;;;7.03;2.42;;;;;;;;;;6228574;28;20061;-68
2023/03/31 01:34:16;;;;;;;6.77;1.63;;;;;;;;;;6165926;28;21972;-68
2023/03/31 01:37:58;;;;;;;7.07;1.52;;;;;;;;;;6164921;28;20314;-68
2023/03/31 01:41:20;;;;;;;4.65;1.42;;;;;;;;;;6142392;28;20070;-70
2023/03/31 01:48:05;;;;;;;2.92;1.35;;;;;;;;;;6110402;28;20334;-68
2023/03/31 01:54:54;;;;;;;4.93;1.40;;;;;;;;;;6156381;28;20059;-68
2023/03/31 01:58:00;;;;;;;7.80;1.90;;;;;;;;;;6165366;28;20074;-68
2023/03/31 02:04:32;;;;;;;6.22;2.08;;;;;;;;;;6164365;28;20265;-68
2023/03/31 02:10:54;;;;;;;7.45;1.75;;;;;;;;;;6225047;28;20070;-68
2023/03/31 02:14:31;;;;;;;7.47;1.70;;;;;;;;;;6241120;28;20065;-68
2023/03/31 02:17:34;;;;;;;5.53;1.50;;;;;;;;;;6221610;28;20056;-68
2023/03/31 02:20:46;;;;;;;8.13;1.67;;;;;;;;;;6238419;28;20249;-68
2023/03/31 02:23:54;;;;;;;5.97;1.80;;;;;;;;;;6245149;28;20371;-68
2023/03/31 02:27:01;;;;;;;6.38;1.27;;;;;;;;;;6239280;28;20069;-69
2023/03/31 02:30:06;;;;;;;6.35;2.35;;;;;;;;;;6240283;28;20567;-68
2023/03/31 02:33:08;;;;;;;5.75;1.80;;;;;;;;;;6240080;28;20199;-68
2023/03/31 02:36:12;;;;;;;6.55;2.00;;;;;;;;;;6240347;28;20116;-68
2023/03/31 02:39:27;;;;;;;;;;;;;;;;;;;;;
2023/03/31 02:42:29;;;;;;;4.82;1.73;;;;;;;;;;6238804;28;20045;-68
2023/03/31 02:46:15;;;;;;;8.60;2.17;;;;;;;;;;6241412;28;20072;-69
2023/03/31 02:49:20;;;;;;;8.73;1.63;;;;;;;;;;6232608;28;20052;-68
2023/03/31 02:52:51;;;;;;;4.78;1.48;;;;;;;;;;6222433;28;20105;-68
2023/03/31 02:56:04;;;;;;;5.05;1.73;;;;;;;;;;6241114;28;20053;-68
2023/03/31 02:59:16;;;;;;;7.97;1.88;;;;;;;;;;6239813;28;20064;-68
2023/03/31 03:02:30;;;;;;;11.15;2.28;;;;;;;;;;6238572;28;20057;-68
2023/03/31 03:05:36;;;;;;;;;;;;;;;;;;6241314;28;20085;-68
2023/03/31 03:08:44;;;;;;;10.45;2.10;;;;;;;;;;6228909;28;19925;-69
2023/03/31 03:12:36;;;;;;;;;;;;;;;;;;;;;
2023/03/31 03:15:43;;;;;;;5.70;1.90;;;;;;;;;;6226917;28;20800;-68
2023/03/31 03:18:55;;;;;;;8.30;1.95;;;;;;;;;;6239144;28;20097;-68
2023/03/31 03:22:00;;;;;;;4.82;1.63;;;;;;;;;;6239205;28;20069;-68
2023/03/31 03:25:02;;;;;;;5.88;1.85;;;;;;;;;;6239421;28;20087;-67
2023/03/31 03:28:04;;;;;;;6.43;1.90;;;;;;;;;;6236074;28;20064;-68
2023/03/31 03:31:08;;;;;;;5.18;1.70;;;;;;;;;;6241233;28;20331;-68
2023/03/31 03:34:11;;;;;;;5.70;2.10;;;;;;;;;;6245855;28;20718;-68
2023/03/31 03:37:13;;;;;;;8.50;1.85;;;;;;;;;;6240910;28;20284;-69
2023/03/31 03:40:15;;;;;;;8.32;2.53;;;;;;;;;;6243695;28;20049;-68
2023/03/31 03:43:17;;;;;;;6.88;2.15;;;;;;;;;;6242566;28;20057;-68
2023/03/31 03:46:19;;;;;;;4.47;2.13;;;;;;;;;;6240984;28;20077;-68
2023/03/31 03:49:22;;;;;;;6.30;1.80;;;;;;;;;;6245325;28;20053;-68
2023/03/31 03:52:24;;;;;;;7.05;1.70;;;;;;;;;;6243596;28;20053;-68
2023/03/31 03:55:26;;;;;;;5.55;1.88;;;;;;;;;;6244805;28;20049;-68
2023/03/31 03:58:28;;;;;;;11.07;1.80;;;;;;;;;;6241504;28;20053;-68
2023/03/31 04:01:30;;;;;;;6.57;1.50;;;;;;;;;;6244094;28;20073;-67
2023/03/31 04:04:33;;;;;;;7.65;2.05;;;;;;;;;;6245505;28;20054;-68
2023/03/31 04:07:35;;;;;;;11.32;1.67;;;;;;;;;;6243146;28;20061;-68
2023/03/31 04:10:37;;;;;;;4.50;1.52;;;;;;;;;;6241523;28;20349;-68
2023/03/31 04:13:38;;;;;;;6.03;1.55;;;;;;;;;;6239324;28;20092;-68
2023/03/31 04:16:41;;;;;;;7.20;1.83;;;;;;;;;;6243458;28;20073;-69
2023/03/31 04:19:49;;;;;;;7.05;1.70;;;;;;;;;;6245419;28;20081;-68
2023/03/31 04:22:51;;;;;;;4.88;1.70;;;;;;;;;;6243445;28;20064;-68
2023/03/31 04:25:53;;;;;;;6.70;2.03;;;;;;;;;;6242829;28;20137;-68
2023/03/31 04:28:57;;;;;;;10.02;2.05;;;;;;;;;;6241177;28;20092;-68
2023/03/31 04:31:59;;;;;;;8.27;1.90;;;;;;;;;;6242062;28;20705;-68
2023/03/31 04:35:02;;;;;;;8.32;1.90;;;;;;;;;;6239418;28;20073;-68
2023/03/31 04:38:04;;;;;;;6.53;1.90;;;;;;;;;;6243376;28;20071;-68
2023/03/31 04:41:06;;;;;;;13.30;1.88;;;;;;;;;;6242310;28;20054;-68
2023/03/31 04:44:08;;;;;;;6.88;2.03;;;;;;;;;;6238633;28;20301;-68
2023/03/31 04:47:10;;;;;;;5.05;1.80;;;;;;;;;;6218656;28;20041;-68
2023/03/31 04:50:14;;;;;;;7.57;1.92;;;;;;;;;;6219425;28;21805;-68
2023/03/31 04:53:17;;;;;;;8.05;1.60;;;;;;;;;;6217693;28;20058;-70
2023/03/31 04:56:19;;;;;;;7.72;1.95;;;;;;;;;;6217108;28;20065;-70
2023/03/31 04:59:21;;;;;;;8.65;2.22;;;;;;;;;;6217301;28;20334;-68
2023/03/31 05:02:23;;;;;;;7.32;1.80;;;;;;;;;;6218077;28;20061;-70
2023/03/31 05:05:26;;;;;;;6.20;1.77;;;;;;;;;;6216174;28;20051;-69
2023/03/31 05:08:28;;;;;;;4.90;2.33;;;;;;;;;;6216889;28;20074;-70
2023/03/31 05:11:30;;;;;;;8.85;1.90;;;;;;;;;;6225644;28;20116;-70
2023/03/31 05:14:32;;;;;;;4.97;1.75;;;;;;;;;;6223091;28;20136;-71
2023/03/31 05:17:35;;;;;;;10.90;1.90;;;;;;;;;;6218967;28;20053;-70
2023/03/31 05:20:38;;;;;;;6.93;1.83;;;;;;;;;;6220299;28;20325;-71
2023/03/31 05:23:40;;;;;;;7.72;1.73;;;;;;;;;;6219250;28;20092;-70
2023/03/31 05:26:46;;;;;;;8.80;1.90;;;;;;;;;;6219245;28;20054;-70
2023/03/31 05:29:48;;;;;;;8.23;2.47;;;;;;;;;;6223346;28;20486;-70
2023/03/31 05:32:56;;;;;;;8.90;1.85;;;;;;;;;;6220902;28;20065;-70
2023/03/31 05:36:00;;;;;;;8.98;2.00;;;;;;;;;;6215486;28;20285;-71
2023/03/31 05:39:01;;;;;;;7.90;2.63;;;;;;;;;;6223776;28;20091;-71
2023/03/31 05:42:04;;;;;;;8.40;2.03;;;;;;;;;;6216760;28;20084;-71
2023/03/31 05:45:08;;;;;;;10.15;1.92;;;;;;;;;;6226508;28;20290;-71
2023/03/31 05:48:09;;;;;;;9.37;2.63;;;;;;;;;;6238196;28;20219;-70
2023/03/31 05:51:13;;;;;;;8.15;2.15;;;;;;;;;;6242351;28;20500;-71
2023/03/31 05:54:15;;;;;;;7.93;2.00;;;;;;;;;;6240943;28;20052;-71
2023/03/31 05:57:16;;;;;;;9.80;1.90;;;;;;;;;;6239776;28;20320;-71
2023/03/31 06:00:19;;;;;;;8.43;2.70;;;;;;;;;;6242404;28;20053;-71
2023/03/31 06:03:21;;;;;;;4.30;1.55;;;;;;;;;;6239502;28;20232;-71
2023/03/31 06:06:24;;;;;;;9.32;2.22;;;;;;;;;;6242669;28;20060;-71
2023/03/31 06:09:27;;;;;;;7.32;2.15;;;;;;;;;;6241095;28;20462;-71
2023/03/31 06:12:29;;;;;;;7.68;2.25;;;;;;;;;;6239088;28;20117;-71
2023/03/31 06:15:31;;;;;;;7.68;2.17;;;;;;;;;;6239771;28;20106;-71
2023/03/31 06:18:34;;;;;;;10.68;2.33;;;;;;;;;;6239729;28;20057;-71
2023/03/31 06:21:37;;;;;;;8.70;2.55;;;;;;;;;;6239400;28;20050;-71
2023/03/31 06:24:39;;;;;;;10.03;2.80;;;;;;;;;;6239267;28;20063;-72
2023/03/31 06:27:40;;;;;;;7.85;2.88;;;;;;;;;;6241031;28;20100;-71
2023/03/31 06:30:42;;;;;;;9.73;2.75;;;;;;;;;;6237762;28;20452;-71
2023/03/31 06:33:44;;;;;;;8.18;2.83;;;;;;;;;;6237533;28;20971;-71
2023/03/31 06:36:48;;;;;;;10.95;3.03;;;;;;;;;;6238166;28;20513;-71
2023/03/31 06:39:49;;;;;;;11.23;4.20;;;;;;;;;;6238651;28;20056;-71
2023/03/31 06:42:51;;;;;;;10.82;2.90;;;;;;;;;;6236893;28;20463;-71
2023/03/31 06:45:56;;;;;;;13.70;3.00;;;;;;;;;;6238740;28;20109;-70
2023/03/31 06:48:58;;;;;;;10.13;2.88;;;;;;;;;;6236838;28;20057;-71
2023/03/31 06:52:02;;;;;;;12.13;3.30;;;;;;;;;;6239266;28;20088;-71
2023/03/31 06:55:05;;;;;;;16.70;3.75;;;;;;;;;;6238570;28;20100;-69
2023/03/31 06:58:07;;;;;;;12.02;3.38;;;;;;;;;;6238911;28;20053;-72
2023/03/31 07:01:09;;;;;;;50.15;4.80;;;;;;;;;;6240435;28;20053;-73
2023/03/31 07:04:11;;;;;;;;;;;;;;;;;;6238569;28;20297;-74
2023/03/31 07:07:14;;;;;;;;;;;;;;;;;;6237122;28;19925;-75
2023/03/31 07:10:15;;;;;;;;;;;;;;;;;;6239598;28;20189;-76
2023/03/31 07:13:18;;;;;;;75.68;7.35;;;;;;;;;;6237919;28;24463;-77
2023/03/31 07:16:20;;;;;;;13.68;3.95;;;;;;;;;;6239244;28;20349;-75
2023/03/31 07:19:21;;;;;;;363.05;28.00;;;;;;;;;;6239611;28;20049;-73
2023/03/31 07:22:25;;;;;;;25.90;4.95;;;;;;;;;;6238867;28;20057;-74
2023/03/31 07:25:29;;;;;;;9.98;4.60;;;;;;;;;;6240393;28;20062;-74
2023/03/31 07:28:31;;;;;;;14.80;4.40;;;;;;;;;;6237666;28;20138;-74
2023/03/31 07:31:33;;;;;;;11.57;4.25;;;;;;;;;;6236831;28;20081;-77
2023/03/31 07:34:35;;;;;;;11.95;4.90;;;;;;;;;;6237456;28;20065;-78
2023/03/31 07:37:40;;;;;;;20.65;4.85;;;;;;;;;;6238650;28;20058;-77
2023/03/31 07:40:43;;;;;;;13.73;4.35;;;;;;;;;;6238458;28;20049;-78
2023/03/31 07:43:45;;;;;;;14.50;4.80;;;;;;;;;;6238291;28;20069;-78
2023/03/31 07:46:47;;;;;;;10.52;4.13;;;;;;;;;;6234457;28;20061;-77
2023/03/31 07:49:49;;;;;;;14.05;4.90;;;;;;;;;;6239557;28;20050;-78
2023/03/31 07:52:52;;;;;;;11.93;4.53;;;;;;;;;;6237892;28;20358;-77
2023/03/31 07:55:54;;;;;;;14.03;3.90;;;;;;;;;;6236625;28;20054;-78
2023/03/31 07:58:56;;;;;;;7.35;2.78;;;;;;;;;;6236312;28;20471;-75
2023/03/31 08:01:58;;;;;;;13.00;3.00;;;;;;;;;;6240223;28;20293;-78
2023/03/31 08:04:59;;;;;;;8.35;3.00;;;;;;;;;;6240194;28;20058;-77
2023/03/31 08:08:03;;;;;;;11.82;3.13;;;;;;;;;;6236453;28;20054;-77
2023/03/31 08:11:04;;;;;;;7.63;2.70;;;;;;;;;;6238876;28;20320;-78
2023/03/31 08:14:06;;;;;;;6.97;2.80;;;;;;;;;;6237366;28;20367;-77
2023/03/31 08:17:08;;;;;;;7.80;3.40;;;;;;;;;;6240426;28;20061;-78
2023/03/31 08:20:11;;;;;;;8.65;3.38;;;;;;;;;;6241291;28;20248;-77
2023/03/31 08:23:14;;;;;;;12.82;3.45;;;;;;;;;;6244275;28;20041;-78
2023/03/31 08:26:17;;;;;;;9.32;3.20;;;;;;;;;;6246635;28;20062;-77
2023/03/31 08:29:19;;;;;;;9.80;3.30;;;;;;;;;;6239623;28;20311;-78
2023/03/31 08:32:22;;;;;;;6.72;3.25;;;;;;;;;;6240478;28;20333;-77
2023/03/31 08:35:24;;;;;;;10.23;3.53;;;;;;;;;;6242184;28;20060;-77
2023/03/31 08:38:27;;;;;;;10.25;3.30;;;;;;;;;;6242588;28;20127;-79
2023/03/31 08:41:39;;;;;;;8.47;3.20;;;;;;;;;;6242360;28;20454;-80
2023/03/31 08:44:45;;;;;;;11.38;3.92;;;;;;;;;;6241030;28;20885;-78
2023/03/31 08:47:48;;;;;;;9.50;3.00;;;;;;;;;;6243149;28;20412;-76
2023/03/31 08:50:53;;;;;;;6.07;2.00;;;;;;;;;;6242586;28;20092;-76
2023/03/31 08:54:02;;;;;;;7.13;2.90;;;;;;;;;;6244107;28;20080;-77
2023/03/31 08:57:06;;;;;;;7.65;3.20;;;;;;;;;;6241936;28;20052;-77
2023/03/31 09:00:11;;;;;;;;;;;;;;;;;;6245991;28;20215;-76
2023/03/31 09:03:19;;;;;;;6.95;1.95;;;;;;;;;;6242119;28;20905;-76
2023/03/31 09:06:23;;;;;;;6.97;2.38;;;;;;;;;;6244228;28;20057;-78
2023/03/31 09:09:34;;;;;;;8.80;2.30;;;;;;;;;;6245841;28;20111;-77
2023/03/31 09:12:43;;;;;;;8.50;2.15;;;;;;;;;;6246117;28;20072;-76
2023/03/31 09:15:48;;;;;;;9.25;1.95;;;;;;;;;;6247220;28;20053;-79
2023/03/31 09:18:52;;;;;;;9.35;2.55;;;;;;;;;;6248456;28;20057;-79
2023/03/31 09:21:57;;;;;;;5.80;1.95;;;;;;;;;;6246250;28;20233;-78
2023/03/31 09:25:04;;;;;;;9.70;2.03;;;;;;;;;;6243630;28;20057;-79
2023/03/31 09:28:14;;;;;;;6.30;2.25;;;;;;;;;;6244254;28;20099;-77
2023/03/31 09:31:18;;;;;;;6.55;2.30;;;;;;;;;;6244721;28;20053;-76
2023/03/31 09:34:24;;;;;;;7.85;2.90;;;;;;;;;;6243182;28;20599;-77
2023/03/31 09:37:28;;;;;;;6.80;2.85;;;;;;;;;;6243621;28;20077;-77
2023/03/31 09:40:31;;;;;;;13.15;3.33;;;;;;;;;;6245048;28;20237;-79
2023/03/31 09:43:34;;;;;;;11.03;2.70;;;;;;;;;;6243652;28;20422;-78
2023/03/31 09:46:37;;;;;;;11.25;2.95;;;;;;;;;;6243514;28;20822;-75
2023/03/31 09:49:39;;;;;;;9.05;2.53;;;;;;;;;;6241150;28;20088;-77
2023/03/31 09:52:43;;;;;;;5.90;2.22;;;;;;;;;;6242676;28;20074;-77
2023/03/31 09:55:51;;;;;;;7.57;2.33;;;;;;;;;;6241447;28;20064;-77
2023/03/31 09:58:54;;;;;;;7.13;2.50;;;;;;;;;;6239803;28;20770;-78
2023/03/31 10:01:58;;;;;;;9.18;2.65;;;;;;;;;;6240209;28;20392;-79
2023/03/31 10:05:00;;;;;;;10.10;3.03;;;;;;;;;;6234216;28;21133;-78
2023/03/31 10:08:24;;;;;;;10.15;3.15;;;;;;;;;;6240104;28;20341;-78
2023/03/31 10:11:27;;;;;;;11.13;3.35;;;;;;;;;;6240242;28;20053;-79
2023/03/31 10:14:38;;;;;;;6.70;3.47;;;;;;;;;;6238586;28;20119;-77
2023/03/31 10:17:42;;;;;;;8.02;3.28;;;;;;;;;;6240772;28;20053;-76
2023/03/31 10:20:50;;;;;;;9.57;4.00;;;;;;;;;;6237957;28;20265;-79
2023/03/31 10:23:53;;;;;;;10.70;3.72;;;;;;;;;;6239890;28;20068;-78
2023/03/31 10:26:57;;;;;;;11.07;3.58;;;;;;;;;;6240886;28;20120;-78
2023/03/31 10:30:00;;;;;;;7.45;3.60;;;;;;;;;;6238841;28;20280;-78
2023/03/31 10:33:05;;;;;;;9.68;3.25;;;;;;;;;;6238463;28;20052;-79
2023/03/31 10:36:09;;;;;;;11.57;3.30;;;;;;;;;;6237801;28;20053;-79
2023/03/31 10:39:15;;;;;;;11.43;3.78;;;;;;;;;;6238576;28;20053;-79
2023/03/31 10:42:23;;;;;;;8.48;3.55;;;;;;;;;;6237240;28;20069;-80
2023/03/31 10:45:26;;;;;;;8.30;3.55;;;;;;;;;;6238122;28;20053;-81
2023/03/31 10:48:29;;;;;;;11.77;3.40;;;;;;;;;;6239065;28;20049;-82
2023/03/31 10:51:31;;;;;;;10.00;4.00;;;;;;;;;;6239187;28;20072;-82
2023/03/31 10:54:33;;;;;;;7.38;3.53;;;;;;;;;;6238108;28;20136;-82
2023/03/31 10:57:40;;;;;;;12.23;3.85;;;;;;;;;;6238307;28;20357;-81
2023/03/31 11:00:54;;;;;;;10.25;3.30;;;;;;;;;;6238706;28;20056;-81
2023/03/31 11:04:03;;;;;;;11.53;3.60;;;;;;;;;;6238432;28;20384;-82
2023/03/31 11:07:09;;;;;;;9.40;4.70;;;;;;;;;;6238645;28;20308;-81
2023/03/31 11:10:21;;;;;;;8.95;3.78;;;;;;;;;;6237321;28;20057;-82
2023/03/31 11:13:27;;;;;;;9.65;3.70;;;;;;;;;;6236373;28;20341;-80
2023/03/31 11:16:32;;;;;;;11.18;3.58;;;;;;;;;;6238532;28;20045;-81
2023/03/31 11:19:40;;;;;;;12.95;3.72;;;;;;;;;;6240598;28;20343;-81
2023/03/31 11:22:47;;;;;;;10.10;3.25;;;;;;;;;;6237325;28;20149;-81
2023/03/31 11:25:53;;;;;;;6.47;3.78;;;;;;;;;;6238399;28;20041;-80
2023/03/31 11:29:06;;;;;;;9.32;3.47;;;;;;;;;;6240291;28;20061;-81
2023/03/31 11:32:26;;;;;;;6.88;3.05;;;;;;;;;;6238036;28;20340;-81
2023/03/31 11:35:42;;;;;;;12.23;4.05;;;;;;;;;;6238250;28;20057;-81
2023/03/31 11:39:00;;;;;;;8.82;3.40;;;;;;;;;;6237598;28;20266;-81
2023/03/31 11:42:05;;;;;;;12.00;4.18;;;;;;;;;;6237420;28;20049;-81
2023/03/31 11:45:16;;;;;;;8.50;3.97;;;;;;;;;;6237292;28;20060;-81
2023/03/31 11:48:25;;;;;;;10.40;3.55;;;;;;;;;;6235957;28;20062;-82
2023/03/31 11:51:29;;;;;;;9.80;3.40;;;;;;;;;;6240833;28;20060;-81
2023/03/31 11:54:34;;;;;;;12.95;3.63;;;;;;;;;;6242462;28;20057;-81
2023/03/31 11:57:40;;;;;;;8.90;3.65;;;;;;;;;;6242263;28;20160;-81
2023/03/31 12:00:46;;;;;;;8.25;3.38;;;;;;;;;;6243749;28;20284;-80
2023/03/31 12:03:54;;;;;;;13.52;3.28;;;;;;;;;;6243184;28;20068;-80
2023/03/31 12:07:03;;;;;;;9.65;4.35;;;;;;;;;;6243900;28;20252;-81
2023/03/31 12:10:13;;;;;;;8.70;3.65;;;;;;;;;;6225646;28;20057;-81
2023/03/31 12:13:33;;;;;;;9.82;3.45;;;;;;;;;;6243040;28;20104;-81
2023/03/31 12:16:38;;;;;;;9.85;3.80;;;;;;;;;;6240353;28;20392;-81
2023/03/31 12:19:45;;;;;;;10.15;3.92;;;;;;;;;;6243237;28;20060;-81
2023/03/31 12:22:48;;;;;;;10.07;4.05;;;;;;;;;;6243438;28;20091;-81
2023/03/31 12:25:59;;;;;;;8.43;4.22;;;;;;;;;;6242994;28;20056;-81
2023/03/31 12:29:04;;;;;;;8.88;3.95;;;;;;;;;;6244821;28;20057;-80
2023/03/31 12:32:10;;;;;;;8.13;3.70;;;;;;;;;;6243717;28;20112;-81
2023/03/31 12:35:16;;;;;;;9.02;3.60;;;;;;;;;;6242251;28;20237;-80
2023/03/31 12:38:25;;;;;;;9.23;3.75;;;;;;;;;;6242067;28;20064;-80
2023/03/31 12:41:33;;;;;;;15.00;3.40;;;;;;;;;;6242711;28;20050;-79
2023/03/31 12:44:50;;;;;;;11.18;4.05;;;;;;;;;;6240261;28;20068;-80
2023/03/31 12:48:05;;;;;;;8.75;3.83;;;;;;;;;;6240990;28;20049;-79
2023/03/31 12:51:20;;;;;;;8.77;3.22;;;;;;;;;;6242803;28;20112;-80
2023/03/31 12:54:34;;;;;;;11.73;3.85;;;;;;;;;;6241075;28;20049;-78
2023/03/31 12:57:36;;;;;;;14.35;4.35;;;;;;;;;;6239810;28;20099;-79
2023/03/31 13:01:06;;;;;;;12.38;3.70;;;;;;;;;;6242805;28;20038;-80
2023/03/31 13:04:18;;;;;;;10.68;3.78;;;;;;;;;;6241088;28;20104;-79
2023/03/31 13:07:37;;;;;;;9.73;3.75;;;;;;;;;;6242196;28;20434;-79
2023/03/31 13:10:54;;;;;;;14.98;3.95;;;;;;;;;;6243379;28;20260;-79
2023/03/31 13:14:00;;;;;;;7.70;4.15;;;;;;;;;;6242362;28;20104;-79
2023/03/31 13:17:13;;;;;;;12.32;4.28;;;;;;;;;;6241943;28;20084;-79
2023/03/31 13:20:25;;;;;;;6.68;2.97;;;;;;;;;;6239378;28;20068;-81
2023/03/31 13:23:27;;;;;;;8.77;3.33;;;;;;;;;;6241888;28;20053;-79
2023/03/31 13:26:46;;;;;;;11.95;3.50;;;;;;;;;;6241100;28;20049;-80
2023/03/31 13:29:48;;;;;;;8.77;3.08;;;;;;;;;;6241425;28;20057;-79
2023/03/31 13:33:03;;;;;;;7.30;3.25;;;;;;;;;;6239787;28;20049;-78
2023/03/31 13:36:26;;;;;;;13.52;3.72;;;;;;;;;;6241137;28;20061;-84
2023/03/31 13:39:50;;;;;;;17.00;3.85;;;;;;;;;;6240301;28;20038;-78
2023/03/31 13:43:05;;;;;;;9.57;3.05;;;;;;;;;;6240683;28;20561;-79
2023/03/31 13:46:26;;;;;;;11.35;3.55;;;;;;;;;;6242659;28;20180;-78
2023/03/31 13:49:44;;;;;;;9.45;3.47;;;;;;;;;;6241737;28;20050;-79
2023/03/31 13:52:55;;;;;;;9.98;3.50;;;;;;;;;;6238926;28;20057;-79
2023/03/31 13:56:15;;;;;;;10.82;3.75;;;;;;;;;;6239086;28;20272;-79
2023/03/31 13:59:40;;;;;;;12.15;4.28;;;;;;;;;;6240370;28;20060;-79
2023/03/31 14:03:06;;;;;;;13.13;3.85;;;;;;;;;;6237982;28;20103;-79
2023/03/31 14:06:14;;;;;;;10.25;3.83;;;;;;;;;;6242280;28;20053;-78
2023/03/31 14:09:24;;;;;;;9.43;3.60;;;;;;;;;;6240598;28;20163;-78
2023/03/31 14:12:31;;;;;;;11.95;3.28;;;;;;;;;;6240587;28;20121;-79
2023/03/31 14:15:33;;;;;;;9.70;3.85;;;;;;;;;;6240483;28;20049;-79
2023/03/31 14:18:38;;;;;;;9.07;3.50;;;;;;;;;;6240232;28;20103;-78
2023/03/31 14:21:43;;;;;;;11.95;4.05;;;;;;;;;;6242697;28;20060;-79
2023/03/31 14:24:51;;;;;;;7.35;3.38;;;;;;;;;;6237601;28;20103;-79
2023/03/31 14:28:04;;;;;;;10.68;3.45;;;;;;;;;;6241226;28;20064;-78
2023/03/31 14:31:14;;;;;;;7.65;3.33;;;;;;;;;;6239000;28;20057;-79
2023/03/31 14:34:45;;;;;;;9.73;3.95;;;;;;;;;;6237845;28;20050;-79
2023/03/31 14:37:48;;;;;;;20.52;4.03;;;;;;;;;;6236101;28;20054;-79
2023/03/31 14:40:55;;;;;;;10.13;3.80;;;;;;;;;;6236457;28;20056;-79
2023/03/31 14:43:58;;;;;;;8.77;3.53;;;;;;;;;;6239465;28;20062;-79
2023/03/31 14:47:00;;;;;;;10.30;3.70;;;;;;;;;;6236073;28;20316;-78
2023/03/31 14:50:07;;;;;;;9.90;3.70;;;;;;;;;;6236393;28;20092;-78
2023/03/31 14:53:14;;;;;;;8.38;3.33;;;;;;;;;;6238747;28;20061;-79
2023/03/31 14:56:22;;;;;;;16.02;4.40;;;;;;;;;;6239649;28;20069;-79
2023/03/31 14:59:26;;;;;;;8.73;3.45;;;;;;;;;;6238388;28;20053;-78
2023/03/31 15:02:32;;;;;;;13.13;4.22;;;;;;;;;;6237215;28;20052;-79
2023/03/31 15:05:35;;;;;;;12.02;4.00;;;;;;;;;;6237169;28;20098;-79
2023/03/31 15:08:37;;;;;;;12.25;3.80;;;;;;;;;;6240311;28;20068;-79
2023/03/31 15:11:40;;;;;;;13.35;4.38;;;;;;;;;;6236981;28;20057;-79
2023/03/31 15:14:45;;;;;;;15.10;3.93;;;;;;;;;;6236641;28;20071;-79
2023/03/31 15:17:48;;;;;;;7.32;3.58;;;;;;;;;;6240604;28;20049;-79
2023/03/31 15:20:49;;;;;;;12.60;4.00;;;;;;;;;;6234080;28;20053;-78
2023/03/31 15:23:52;;;;;;;17.70;4.50;;;;;;;;;;6241620;28;20050;-78
2023/03/31 15:26:58;;;;;;;13.75;4.22;;;;;;;;;;6238799;28;20092;-79
2023/03/31 15:30:01;;;;;;;31.73;5.05;;;;;;;;;;6243717;28;20096;-79
2023/03/31 15:33:06;;;;;;;20.17;4.78;;;;;;;;;;6242550;28;20053;-79
2023/03/31 15:36:08;;;;;;;13.52;4.07;;;;;;;;;;6242634;28;20435;-79
2023/03/31 15:39:11;;;;;;;24.98;4.22;;;;;;;;;;6243812;28;20068;-79
2023/03/31 15:42:14;;;;;;;18.30;4.07;;;;;;;;;;6244582;28;20121;-79
2023/03/31 15:45:38;;;;;;;36.90;5.57;;;;;;;;;;6242741;28;20388;-79
2023/03/31 15:48:49;;;;;;;;;;;;;;;;;;6242651;28;20057;-79
2023/03/31 15:51:52;;;;;;;32.97;5.03;;;;;;;;;;6241858;28;19967;-79
2023/03/31 15:54:53;;;;;;;16.08;4.45;;;;;;;;;;6242525;28;20057;-79
2023/03/31 15:57:58;;;;;;;12.60;4.22;;;;;;;;;;6243848;28;20071;-79
2023/03/31 16:01:03;;;;;;;13.05;3.95;;;;;;;;;;6240967;28;20135;-78
2023/03/31 16:04:07;;;;;;;12.68;5.30;;;;;;;;;;6239684;28;20109;-78
2023/03/31 16:07:15;;;;;;;14.45;4.43;;;;;;;;;;6243655;28;20171;-79
2023/03/31 16:10:20;;;;;;;18.15;4.40;;;;;;;;;;6240471;28;20131;-79
2023/03/31 16:13:24;;;;;;;17.45;4.65;;;;;;;;;;6240446;28;20069;-79
2023/03/31 16:16:26;;;;;;;;;;;;;;;;;;6241424;28;20061;-78
2023/03/31 16:19:31;;;;;;;14.38;5.70;;;;;;;;;;6242512;28;19959;-79
2023/03/31 16:22:36;;;;;;;42.63;6.70;;;;;;;;;;6243722;28;20061;-79
2023/03/31 16:25:40;;;;;;;21.08;5.30;;;;;;;;;;6242053;28;20108;-79
2023/03/31 16:28:42;;;;;;;;;;;;;;;;;;6240688;28;20333;-79
2023/03/31 16:31:44;;;;;;;19.05;5.22;;;;;;;;;;6240800;28;19925;-79
2023/03/31 16:34:56;;;;;;;24.17;5.43;;;;;;;;;;6241660;28;20065;-79
2023/03/31 16:38:00;;;;;;;22.08;6.07;;;;;;;;;;6241651;28;20091;-78
2023/03/31 16:41:02;;;;;;;20.05;5.80;;;;;;;;;;6241974;28;20113;-79
2023/03/31 16:44:05;;;;;;;19.33;5.30;;;;;;;;;;6241515;28;20056;-78
2023/03/31 16:47:07;;;;;;;13.68;5.65;;;;;;;;;;6243075;28;20320;-79
2023/03/31 16:50:09;;;;;;;12.95;5.60;;;;;;;;;;6240556;28;20041;-79
2023/03/31 16:53:12;;;;;;;18.25;5.72;;;;;;;;;;6241392;28;20321;-78
2023/03/31 16:56:14;;;;;;;19.17;6.23;;;;;;;;;;6243130;28;20088;-79
2023/03/31 16:59:18;;;;;;;23.35;5.68;;;;;;;;;;6241591;28;20234;-79
2023/03/31 17:02:20;;;;;;;12.82;5.63;;;;;;;;;;6238070;28;20049;-79
2023/03/31 17:05:22;;;;;;;22.90;6.03;;;;;;;;;;6242013;28;20121;-79
2023/03/31 17:08:26;;;;;;;12.18;5.50;;;;;;;;;;6239285;28;20057;-79
2023/03/31 17:11:29;;;;;;;16.55;6.70;;;;;;;;;;6242444;28;20038;-78
2023/03/31 17:14:32;;;;;;;18.40;6.80;;;;;;;;;;6241158;28;20057;-78
2023/03/31 17:17:35;;;;;;;16.85;5.82;;;;;;;;;;6242417;28;20128;-78
2023/03/31 17:20:37;;;;;;;17.05;5.55;;;;;;;;;;6242316;28;20041;-79
2023/03/31 17:23:39;;;;;;;18.30;5.82;;;;;;;;;;6241821;28;20061;-80
2023/03/31 17:26:41;;;;;;;15.90;5.82;;;;;;;;;;6241088;28;20297;-79
2023/03/31 17:29:44;;;;;;;17.80;5.65;;;;;;;;;;6243743;28;20072;-79
2023/03/31 17:32:47;;;;;;;12.45;5.32;;;;;;;;;;6238486;28;20050;-80
2023/03/31 17:35:49;;;;;;;14.80;5.38;;;;;;;;;;6241087;28;20053;-79
2023/03/31 17:38:51;;;;;;;17.00;5.57;;;;;;;;;;6240292;28;20053;-80
2023/03/31 17:41:53;;;;;;;15.88;5.63;;;;;;;;;;6240233;28;20060;-80
2023/03/31 17:44:59;;;;;;;16.55;6.15;;;;;;;;;;6230030;28;20104;-80
2023/03/31 17:48:05;;;;;;;13.05;5.82;;;;;;;;;;6226790;28;20358;-79
2023/03/31 17:51:08;;;;;;;16.20;6.32;;;;;;;;;;6241985;28;20092;-80
2023/03/31 17:54:10;;;;;;;16.85;6.38;;;;;;;;;;6240843;28;20938;-80
2023/03/31 17:57:12;;;;;;;14.93;6.32;;;;;;;;;;6243147;28;20045;-79
2023/03/31 18:00:18;;;;;;;12.32;6.03;;;;;;;;;;6239145;28;20061;-80
2023/03/31 18:03:21;;;;;;;12.07;5.45;;;;;;;;;;6229048;28;20376;-79
2023/03/31 18:06:23;;;;;;;13.40;5.80;;;;;;;;;;6237534;28;20061;-80
2023/03/31 18:09:25;;;;;;;15.95;6.22;;;;;;;;;;6243799;28;20055;-79
2023/03/31 18:12:30;;;;;;;11.23;5.70;;;;;;;;;;6240000;28;20768;-78
2023/03/31 18:15:52;;;;;;;13.63;6.68;;;;;;;;;;6241891;28;20057;-77
2023/03/31 18:18:54;;;;;;;11.23;5.95;;;;;;;;;;6237712;28;20348;-77
2023/03/31 18:21:56;;;;;;;20.77;6.18;;;;;;;;;;6232932;28;20125;-74
2023/03/31 18:24:58;;;;;;;15.55;6.50;;;;;;;;;;6239726;28;20096;-74
2023/03/31 18:27:59;;;;;;;12.68;6.07;;;;;;;;;;6244575;28;20053;-75
2023/03/31 18:31:04;;;;;;;18.02;7.00;;;;;;;;;;6242604;28;20305;-75
2023/03/31 18:34:06;;;;;;;14.38;6.40;;;;;;;;;;6245936;28;20057;-76
2023/03/31 18:37:08;;;;;;;12.98;7.03;;;;;;;;;;6247309;28;20061;-75
2023/03/31 18:40:11;;;;;;;15.57;7.25;;;;;;;;;;6245085;28;20408;-76
2023/03/31 18:43:12;;;;;;;18.10;7.43;;;;;;;;;;6240616;28;20050;-76
2023/03/31 18:46:15;;;;;;;16.48;8.23;;;;;;;;;;6240493;28;20060;-75
2023/03/31 18:49:18;;;;;;;11.93;7.47;;;;;;;;;;6244478;28;20050;-81
2023/03/31 18:52:21;;;;;;;13.80;8.30;;;;;;;;;;6244899;28;20058;-81
2023/03/31 18:55:23;;;;;;;16.05;8.05;;;;;;;;;;6243393;28;20061;-80